Time;durP1;ratioP1;P1;durP2;ratioP2;P2;SDS_P1;SDS_P2;PMS_P1;PMS_P2;Temp;Humidity;BMP_temperature;BMP_pressure;BME280_temperature;BME280_humidity;BME280_pressure;Samples;Min_cycle;Max_cycle;Signal;HPM_P1;HPM_P2
2022/10/05 00:01:24;;;;;;;;;;;;;;;14.83;55.48;100758.53;5100583;28;19916;-73
2022/10/05 00:03:51;;;;;;;;;;;;;;;14.65;55.66;100756.00;5100348;28;19943;-73
2022/10/05 00:06:17;;;;;;;;;;;;;;;14.41;56.36;100766.53;5099417;28;19923;-73
2022/10/05 00:08:42;;;;;;;;;;;;;;;14.32;57.18;100763.84;5099608;28;20156;-73
2022/10/05 00:11:08;;;;;;;;;;;;;;;14.44;56.75;100766.25;5098914;28;19970;-73
2022/10/05 00:13:33;;;;;;;;;;;;;;;14.39;56.70;100764.88;5101149;28;19957;-73
2022/10/05 00:16:19;;;;;;;;;;;;;;;14.34;56.90;100763.69;5099688;28;19916;-73
2022/10/05 00:18:45;;;;;;;;;;;;;;;14.30;57.05;100765.00;5099509;28;20093;-73
2022/10/05 00:21:29;;;;;;;;;;;;;;;14.40;56.53;100763.03;5100299;28;20007;-73
2022/10/05 00:23:55;;;;;;;;;;;;;;;13.80;58.58;100756.97;5100193;28;19957;-73
2022/10/05 00:26:22;;;;;;;;;;;;;;;13.79;58.78;100764.13;5099163;28;19916;-73
2022/10/05 00:28:47;;;;;;;;;;;;;;;13.83;58.73;100759.31;5099659;28;19912;-73
2022/10/05 00:31:16;;;;;;;;;;;;;;;14.01;58.29;100758.22;5097704;28;19931;-73
2022/10/05 00:33:41;;;;;;;;;;;;;;;14.13;57.89;100755.28;5098824;28;19912;-73
2022/10/05 00:36:06;;;;;;;;;;;;;;;14.31;57.39;100758.69;5099360;28;20017;-73
2022/10/05 00:38:32;;;;;;;;;;;;;;;14.19;57.87;100752.81;5100065;28;19919;-73
2022/10/05 00:40:57;;;;;;;;;;;;;;;14.17;57.85;100753.97;5098944;28;19916;-73
2022/10/05 00:43:41;;;;;;;;;;;;;;;14.01;58.14;100750.25;5099692;28;19912;-73
2022/10/05 00:46:06;;;;;;;;;;;;;;;14.08;57.98;100747.78;5098184;28;19916;-73
2022/10/05 00:48:50;;;;;;;;;;;;;;;14.16;57.76;100744.31;5100437;28;19915;-73
2022/10/05 00:51:21;;;;;;;;;;;;;;;14.02;57.86;100743.09;5099106;28;19923;-73
2022/10/05 00:53:49;;;;;;;;;;;;;;;13.95;58.23;100742.91;5099984;28;20102;-73
2022/10/05 00:56:24;;;;;;;;;;;;;;;14.11;57.76;100739.47;5097485;28;21525;-73
2022/10/05 00:59:08;;;;;;;;;;;;;;;14.07;57.78;100743.44;5101240;28;19957;-73
2022/10/05 01:01:43;;;;;;;;;;;;;;;13.89;58.29;100742.69;5097458;28;19916;-73
2022/10/05 01:04:27;;;;;;;;;;;;;;;13.97;58.16;100745.41;5093886;28;19912;-73
2022/10/05 01:06:55;;;;;;;;;;;;;;;13.94;58.01;100751.88;5096705;28;19915;-73
2022/10/05 01:09:27;;;;;;;;;;;;;;;13.90;58.01;100752.34;5099257;28;19916;-73
2022/10/05 01:11:56;;;;;;;;;;;;;;;14.01;57.73;100758.22;5099023;28;19950;-73
2022/10/05 01:14:34;;;;;;;;;;;;;;;13.94;57.76;100759.88;5098506;28;19923;-73
2022/10/05 01:17:06;;;;;;;;;;;;;;;13.97;57.58;100762.22;5098349;28;19912;-73
2022/10/05 01:19:45;;;;;;;;;;;;;;;13.88;58.16;100757.00;5094841;28;20206;-73
2022/10/05 01:22:10;;;;;;;;;;;;;;;14.10;57.67;100752.94;5096118;28;19912;-73
2022/10/05 01:24:53;;;;;;;;;;;;;;;14.27;56.93;100760.84;5099227;28;19916;-73
2022/10/05 01:27:33;;;;;;;;;;;;;;;14.32;56.83;100763.00;5099408;28;19947;-73
2022/10/05 01:30:12;;;;;;;;;;;;;;;14.22;56.75;100763.16;5099177;28;20091;-73
2022/10/05 01:32:56;;;;;;;;;;;;;;;14.15;56.97;100759.47;5099259;28;19912;-73
2022/10/05 01:35:22;;;;;;;;;;;;;;;13.85;57.73;100763.47;5097182;28;20206;-73
2022/10/05 01:38:05;;;;;;;;;;;;;;;13.79;58.22;100764.13;5099614;28;19969;-73
2022/10/05 01:40:37;;;;;;;;;;;;;;;13.95;57.55;100763.38;5095645;28;20091;-73
2022/10/05 01:43:08;;;;;;;;;;;;;;;13.74;58.22;100767.25;5097411;28;19919;-73
2022/10/05 01:45:51;;;;;;;;;;;;;;;13.87;57.94;100769.47;5097004;28;19923;-73
2022/10/05 01:48:23;;;;;;;;;;;;;;;13.71;58.35;100772.88;5097043;28;19920;-74
2022/10/05 01:50:57;;;;;;;;;;;;;;;13.57;58.73;100772.63;5098010;28;19920;-73
2022/10/05 01:53:42;;;;;;;;;;;;;;;13.42;59.09;100780.31;5098542;28;19912;-73
2022/10/05 01:56:26;;;;;;;;;;;;;;;13.48;59.35;100782.34;5044630;28;19916;-73
2022/10/05 01:59:15;;;;;;;;;;;;;;;13.52;59.06;100783.72;5096412;28;19912;-73
2022/10/05 02:01:58;;;;;;;;;;;;;;;13.76;58.45;100796.38;5097081;28;19916;-73
2022/10/05 02:04:30;;;;;;;;;;;;;;;13.93;57.82;100794.63;5098014;28;20210;-73
2022/10/05 02:06:56;;;;;;;;;;;;;;;14.05;57.50;100798.69;5114146;28;20223;-73
2022/10/05 02:09:26;;;;;;;;;;;;;;;14.19;56.91;100800.75;5097929;28;19982;-73
2022/10/05 02:11:56;;;;;;;;;;;;;;;14.05;57.34;100807.53;5098124;28;20266;-73
2022/10/05 02:14:24;;;;;;;;;;;;;;;13.68;58.26;100813.13;5098418;28;19916;-73
2022/10/05 02:16:51;;;;;;;;;;;;;;;13.86;58.21;100821.06;5096553;28;19979;-73
2022/10/05 02:19:20;;;;;;;;;;;;;;;13.86;58.05;100828.22;5098164;28;19923;-73
2022/10/05 02:21:49;;;;;;;;;;;;;;;13.80;57.87;100832.34;5115547;28;19924;-73
2022/10/05 02:24:20;;;;;;;;;;;;;;;13.30;58.97;100830.25;5100256;28;19915;-73
2022/10/05 02:26:46;;;;;;;;;;;;;;;12.84;60.72;100828.63;5098813;28;19912;-73
2022/10/05 02:29:14;;;;;;;;;;;;;;;13.00;60.74;100839.44;5102661;28;20090;-73
2022/10/05 02:31:43;;;;;;;;;;;;;;;12.95;60.65;100831.06;5101315;28;19950;-73
2022/10/05 02:34:38;;;;;;;;;;;;;;;12.92;61.71;100839.34;5100918;28;20034;-73
2022/10/05 02:37:03;;;;;;;;;;;;;;;12.82;61.83;100843.91;5091826;28;19915;-73
2022/10/05 02:39:38;;;;;;;;;;;;;;;12.99;61.26;100842.25;5101584;28;20234;-72
2022/10/05 02:42:12;;;;;;;;;;;;;;;12.90;61.99;100853.78;5101959;28;20149;-73
2022/10/05 02:44:43;;;;;;;;;;;;;;;12.83;61.50;100850.03;5101887;28;19980;-72
2022/10/05 02:47:16;;;;;;;;;;;;;;;12.27;64.08;100859.81;5101365;28;19924;-73
2022/10/05 02:49:52;;;;;;;;;;;;;;;12.44;63.23;100850.22;5101038;28;19916;-72
2022/10/05 02:52:23;;;;;;;;;;;;;;;12.66;62.62;100854.34;5102408;28;19911;-72
2022/10/05 02:54:58;;;;;;;;;;;;;;;12.85;62.13;100859.53;5101482;28;20214;-73
2022/10/05 02:57:29;;;;;;;;;;;;;;;12.58;62.24;100867.53;5100911;28;19912;-73
2022/10/05 03:00:03;;;;;;;;;;;;;;;12.57;62.73;100865.84;5100732;28;19916;-73
2022/10/05 03:02:34;;;;;;;;;;;;;;;12.28;63.27;100866.78;5100808;28;19911;-73
2022/10/05 03:05:02;;;;;;;;;;;;;;;12.65;62.21;100861.47;5101487;28;19916;-73
2022/10/05 03:07:27;;;;;;;;;;;;;;;12.63;62.28;100862.59;5100217;28;20098;-73
2022/10/05 03:09:56;;;;;;;;;;;;;;;12.80;61.63;100856.50;5102086;28;19916;-73
2022/10/05 03:12:40;;;;;;;;;;;;;;;12.65;61.63;100860.63;5101217;28;19920;-73
2022/10/05 03:15:06;;;;;;;;;;;;;;;12.15;63.38;100863.63;5101306;28;19983;-73
2022/10/05 03:17:40;;;;;;;;;;;;;;;12.36;63.55;100855.44;5099375;28;19934;-73
2022/10/05 03:20:21;;;;;;;;;;;;;;;12.23;62.99;100831.03;5098262;28;19916;-73
2022/10/05 03:22:48;;;;;;;;;;;;;;;12.34;63.48;100865.38;5101435;28;19912;-73
2022/10/05 03:25:23;;;;;;;;;;;;;;;12.35;63.25;100872.34;5115403;28;19915;-73
2022/10/05 03:27:58;;;;;;;;;;;;;;;12.04;65.15;100875.25;5100830;28;19939;-73
2022/10/05 03:30:25;;;;;;;;;;;;;;;11.90;65.52;100870.41;5100076;28;19916;-73
2022/10/05 03:33:15;;;;;;;;;;;;;;;12.02;65.17;100871.91;5099746;28;19983;-73
2022/10/05 03:35:48;;;;;;;;;;;;;;;12.13;65.02;100877.03;5098013;28;19916;-73
2022/10/05 03:38:22;;;;;;;;;;;;;;;12.13;64.77;100871.72;5101041;28;19939;-73
2022/10/05 03:41:06;;;;;;;;;;;;;;;11.96;66.12;100885.75;5100635;28;19920;-74
2022/10/05 03:43:31;;;;;;;;;;;;;;;11.88;66.21;100890.94;5101581;28;20192;-73
2022/10/05 03:46:04;;;;;;;;;;;;;;;11.84;66.42;100889.56;5101204;28;19979;-74
2022/10/05 03:48:29;;;;;;;;;;;;;;;11.89;66.48;100883.81;5099236;28;19916;-73
2022/10/05 03:51:14;;;;;;;;;;;;;;;12.02;65.56;100881.69;5099961;28;19916;-73
2022/10/05 03:53:43;;;;;;;;;;;;;;;11.72;66.61;100890.66;5098185;28;19986;-74
2022/10/05 03:56:18;;;;;;;;;;;;;;;11.48;66.36;100857.44;5096659;28;20209;-73
2022/10/05 03:58:46;;;;;;;;;;;;;;;11.58;67.18;100899.88;5101029;28;20184;-74
2022/10/05 04:01:15;;;;;;;;;;;;;;;11.66;66.63;100896.53;5094078;28;19916;-74
2022/10/05 04:03:44;;;;;;;;;;;;;;;11.31;67.76;100903.19;5100895;28;20028;-74
2022/10/05 04:06:22;;;;;;;;;;;;;;;11.26;68.03;100899.28;5100080;28;20021;-74
2022/10/05 04:09:02;;;;;;;;;;;;;;;11.14;68.17;100899.41;5100549;28;19983;-73
2022/10/05 04:11:33;;;;;;;;;;;;;;;11.29;68.21;100904.31;5098892;28;19923;-73
2022/10/05 04:14:05;;;;;;;;;;;;;;;11.20;68.67;100908.63;5099874;28;19965;-74
2022/10/05 04:16:35;;;;;;;;;;;;;;;11.26;68.50;100915.19;5098131;28;19920;-74
2022/10/05 04:19:02;;;;;;;;;;;;;;;11.41;67.79;100919.94;5100328;28;19919;-73
2022/10/05 04:21:33;;;;;;;;;;;;;;;11.58;66.76;100914.97;5099251;28;19931;-73
2022/10/05 04:24:11;;;;;;;;;;;;;;;11.65;65.94;100924.03;5099514;28;19951;-74
2022/10/05 04:26:39;;;;;;;;;;;;;;;11.44;66.76;100925.00;5099209;28;19915;-73
2022/10/05 04:29:07;;;;;;;;;;;;;;;11.28;67.16;100927.34;5099044;28;19957;-73
2022/10/05 04:31:38;;;;;;;;;;;;;;;11.22;67.74;100929.69;5100578;28;19923;-73
2022/10/05 04:34:13;;;;;;;;;;;;;;;11.27;67.75;100938.06;5099087;28;19912;-73
2022/10/05 04:36:44;;;;;;;;;;;;;;;11.35;67.43;100917.00;5096722;28;19995;-73
2022/10/05 04:39:13;;;;;;;;;;;;;;;11.52;67.03;100924.31;5114536;28;19912;-74
2022/10/05 04:41:44;;;;;;;;;;;;;;;11.17;68.22;100935.41;5099706;28;19924;-73
2022/10/05 04:44:12;;;;;;;;;;;;;;;11.52;67.91;100927.81;5103921;28;20245;-73
2022/10/05 04:46:59;;;;;;;;;;;;;;;11.86;66.50;100939.84;5096481;28;19916;-73
2022/10/05 04:49:43;;;;;;;;;;;;;;;11.83;65.56;100936.47;5096668;28;19916;-73
2022/10/05 04:52:08;;;;;;;;;;;;;;;11.86;65.44;100942.47;5096358;28;19924;-73
2022/10/05 04:54:44;;;;;;;;;;;;;;;11.88;64.79;100945.84;5099511;28;19961;-73
2022/10/05 04:57:12;;;;;;;;;;;;;;;11.75;65.37;100943.44;5115154;28;19920;-73
2022/10/05 04:59:52;;;;;;;;;;;;;;;11.70;65.91;100940.38;5098717;28;19923;-73
2022/10/05 05:02:36;;;;;;;;;;;;;;;11.85;65.98;100940.81;5098400;28;20175;-73
2022/10/05 05:05:20;;;;;;;;;;;;;;;11.93;65.71;100940.94;5095985;28;19916;-73
2022/10/05 05:07:45;;;;;;;;;;;;;;;12.27;64.12;100950.09;5098782;28;20182;-73
2022/10/05 05:10:23;;;;;;;;;;;;;;;12.15;64.17;100945.94;5098996;28;19926;-73
2022/10/05 05:12:56;;;;;;;;;;;;;;;12.01;64.90;100947.22;5099602;28;20181;-73
2022/10/05 05:15:21;;;;;;;;;;;;;;;12.08;65.20;100958.09;5098030;28;19955;-73
2022/10/05 05:17:59;;;;;;;;;;;;;;;11.83;66.26;100962.19;5098590;28;19919;-73
2022/10/05 05:20:43;;;;;;;;;;;;;;;11.53;66.85;100963.13;5092274;28;19916;-73
2022/10/05 05:23:17;;;;;;;;;;;;;;;11.58;68.13;100960.06;5094868;28;19924;-74
2022/10/05 05:26:05;;;;;;;;;;;;;;;11.98;67.08;100970.56;5112978;28;19916;-74
2022/10/05 05:28:36;;;;;;;;;;;;;;;12.48;64.83;100965.84;5098646;28;19924;-73
2022/10/05 05:31:15;;;;;;;;;;;;;;;12.66;64.65;100979.22;5098215;28;20091;-74
2022/10/05 05:33:41;;;;;;;;;;;;;;;12.89;63.49;100977.88;5096961;28;19912;-73
2022/10/05 05:36:24;;;;;;;;;;;;;;;12.81;64.55;100977.78;5099173;28;19999;-73
2022/10/05 05:38:55;;;;;;;;;;;;;;;12.96;63.40;100986.09;5099135;28;20213;-73
2022/10/05 05:41:39;;;;;;;;;;;;;;;12.99;63.25;100978.66;5098800;28;19987;-73
2022/10/05 05:44:04;;;;;;;;;;;;;;;13.32;62.56;100989.72;5099497;28;19912;-74
2022/10/05 05:46:30;;;;;;;;;;;;;;;13.73;61.23;100996.31;5098194;28;19930;-74
2022/10/05 05:48:56;;;;;;;;;;;;;;;14.13;60.03;100990.50;5099200;28;20257;-74
2022/10/05 05:51:31;;;;;;;;;;;;;;;14.23;59.31;101006.41;5098681;28;19947;-73
2022/10/05 05:54:03;;;;;;;;;;;;;;;14.71;58.41;101013.13;5097115;28;19970;-74
2022/10/05 05:56:33;;;;;;;;;;;;;;;14.35;59.03;101019.31;5095380;28;19947;-74
2022/10/05 05:59:12;;;;;;;;;;;;;;;14.67;58.52;101013.44;5116271;28;19935;-74
2022/10/05 06:01:49;;;;;;;;;;;;;;;14.49;58.85;101019.78;5117680;28;20087;-74
2022/10/05 06:04:18;;;;;;;;;;;;;;;15.07;57.48;101027.13;5102222;28;19999;-74
2022/10/05 06:06:46;;;;;;;;;;;;;;;15.26;57.01;101030.38;5101762;28;19950;-73
2022/10/05 06:09:27;;;;;;;;;;;;;;;15.27;56.58;101037.38;5102058;28;20231;-74
2022/10/05 06:11:54;;;;;;;;;;;;;;;15.42;56.73;101036.78;5100516;28;19915;-74
2022/10/05 06:14:25;;;;;;;;;;;;;;;15.56;56.39;101039.66;5099719;28;20203;-74
2022/10/05 06:16:54;;;;;;;;;;;;;;;15.51;56.60;101039.31;5094587;28;19912;-74
2022/10/05 06:19:21;;;;;;;;;;;;;;;15.48;56.51;101042.28;5100728;28;20197;-74
2022/10/05 06:21:50;;;;;;;;;;;;;;;15.68;56.64;101050.91;5100570;28;19919;-74
2022/10/05 06:24:22;;;;;;;;;;;;;;;15.89;55.73;101051.28;5100214;28;20083;-74
2022/10/05 06:26:59;;;;;;;;;;;;;;;16.21;55.56;101057.66;5100684;28;19919;-73
2022/10/05 06:29:31;;;;;;;;;;;;;;;16.33;54.81;101052.81;5100154;28;20087;-74
2022/10/05 06:31:56;;;;;;;;;;;;;;;16.20;54.46;101048.81;5101025;28;19924;-74
2022/10/05 06:34:37;;;;;;;;;;;;;;;16.31;53.66;101050.31;5116014;28;19924;-74
2022/10/05 06:37:09;;;;;;;;;;;;;;;16.36;54.20;101055.16;5115898;28;20308;-74
2022/10/05 06:39:51;;;;;;;;;;;;;;;16.38;53.57;101047.81;5100541;28;20210;-74
2022/10/05 06:42:16;;;;;;;;;;;;;;;16.26;53.76;101050.81;5100338;28;19942;-74
2022/10/05 06:44:53;;;;;;;;;;;;;;;16.48;53.56;101045.78;5100131;28;19916;-74
2022/10/05 06:47:30;;;;;;;;;;;;;;;16.83;52.94;101047.31;5100686;28;20109;-74
2022/10/05 06:50:20;;;;;;;;;;;;;;;16.99;52.74;101049.94;5100331;28;19940;-74
2022/10/05 06:53:04;;;;;;;;;;;;;;;17.45;50.72;101044.72;5099290;28;19912;-74
2022/10/05 06:55:35;;;;;;;;;;;;;;;17.60;50.73;101037.63;5099711;28;19916;-74
2022/10/05 06:58:09;;;;;;;;;;;;;;;17.36;51.06;101041.25;5100608;28;20063;-74
2022/10/05 07:00:58;;;;;;;;;;;;;;;17.47;51.70;101053.41;5100694;28;20209;-74
2022/10/05 07:03:29;;;;;;;;;;;;;;;17.77;50.35;101039.25;5094320;28;19924;-74
2022/10/05 07:05:57;;;;;;;;;;;;;;;17.70;50.94;101046.31;5095513;28;19969;-74
2022/10/05 07:08:34;;;;;;;;;;;;;;;17.94;50.25;101045.31;5099178;28;19920;-74
2022/10/05 07:11:00;;;;;;;;;;;;;;;17.95;50.56;101030.91;5099404;28;19916;-74
2022/10/05 07:14:03;;;;;;;;;;;;;;;18.11;49.31;101035.31;5100176;28;19971;-74
2022/10/05 07:16:47;;;;;;;;;;;;;;;17.95;49.32;101038.94;5017580;28;20203;-74
2022/10/05 07:19:24;;;;;;;;;;;;;;;18.05;49.30;101046.75;5017523;28;20109;-74
2022/10/05 07:21:50;;;;;;;;;;;;;;;18.23;48.74;101039.25;5071882;28;19923;-74
2022/10/05 07:24:44;;;;;;;;;;;;;;;18.28;48.20;101044.88;5099395;28;19915;-74
2022/10/05 07:27:21;;;;;;;;;;;;;;;18.32;48.03;101038.16;5090466;28;19920;-74
2022/10/05 07:29:55;;;;;;;;;;;;;;;18.36;48.06;101043.97;5099851;28;20256;-74
2022/10/05 07:32:30;;;;;;;;;;;;;;;18.62;47.35;101040.94;5098973;28;19912;-74
2022/10/05 07:34:55;;;;;;;;;;;;;;;18.73;46.93;101044.03;5099245;28;20158;-74
2022/10/05 07:37:53;;;;;;;;;;;;;;;19.05;46.06;101042.81;5115727;28;19912;-74
2022/10/05 07:40:31;;;;;;;;;;;;;;;19.13;45.86;101045.41;5098388;28;20247;-74
2022/10/05 07:42:56;;;;;;;;;;;;;;;19.06;45.24;101038.28;5108704;28;20118;-74
2022/10/05 07:45:27;;;;;;;;;;;;;;;18.99;45.40;101037.38;5099851;28;19916;-74
2022/10/05 07:47:57;;;;;;;;;;;;;;;19.35;43.62;101038.25;5099383;28;20488;-74
2022/10/05 07:50:22;;;;;;;;;;;;;;;19.49;42.94;101039.25;5099011;28;20106;-74
2022/10/05 07:52:52;;;;;;;;;;;;;;;19.50;42.70;101040.91;5115742;28;19915;-74
2022/10/05 07:55:21;;;;;;;;;;;;;;;19.51;42.04;101045.28;5099259;28;19975;-74
2022/10/05 07:57:46;;;;;;;;;;;;;;;19.46;42.37;101056.59;5099008;28;19912;-74
2022/10/05 08:00:14;;;;;;;;;;;;;;;19.76;41.43;101056.53;5098712;28;19955;-74
2022/10/05 08:02:51;;;;;;;;;;;;;;;19.94;41.58;101051.59;5099641;28;19947;-74
2022/10/05 08:05:21;;;;;;;;;;;;;;;19.91;40.73;101059.22;5099067;28;19952;-74
2022/10/05 08:07:51;;;;;;;;;;;;;;;19.51;41.73;101052.50;5098822;28;20123;-74
2022/10/05 08:10:26;;;;;;;;;;;;;;;19.48;42.04;101052.88;5098372;28;19923;-74
2022/10/05 08:13:01;;;;;;;;;;;;;;;19.28;42.33;101058.81;5098748;28;19912;-74
2022/10/05 08:15:32;;;;;;;;;;;;;;;19.57;42.00;101057.16;5097368;28;19969;-74
2022/10/05 08:18:03;;;;;;;;;;;;;;;19.40;41.85;101057.34;5099085;28;19958;-74
2022/10/05 08:20:38;;;;;;;;;;;;;;;19.38;41.46;101050.47;5098387;28;20399;-74
2022/10/05 08:23:12;;;;;;;;;;;;;;;19.70;41.32;101066.19;5098140;28;19922;-74
2022/10/05 08:25:52;;;;;;;;;;;;;;;19.85;41.57;101055.44;5098480;28;19916;-74
2022/10/05 08:28:17;;;;;;;;;;;;;;;20.05;41.03;101061.84;5097480;28;20218;-74
2022/10/05 08:31:01;;;;;;;;;;;;;;;19.76;41.25;101062.75;5099027;28;19916;-75
2022/10/05 08:33:32;;;;;;;;;;;;;;;19.76;40.95;101053.84;5099501;28;19912;-74
2022/10/05 08:36:06;;;;;;;;;;;;;;;19.99;41.08;101049.16;5098712;28;19924;-74
2022/10/05 08:38:32;;;;;;;;;;;;;;;20.03;41.09;101049.59;5099183;28;20205;-74
2022/10/05 08:41:04;;;;;;;;;;;;;;;20.28;39.73;101052.72;5097641;28;19916;-74
2022/10/05 08:43:48;;;;;;;;;;;;;;;20.35;39.80;101045.56;5096663;28;19949;-75
2022/10/05 08:46:32;;;;;;;;;;;;;;;20.69;39.76;101042.94;5098033;28;20207;-75
2022/10/05 08:49:09;;;;;;;;;;;;;;;20.42;39.66;101041.09;5097754;28;19912;-75
2022/10/05 08:51:44;;;;;;;;;;;;;;;20.58;39.05;101038.09;5098014;28;20013;-74
2022/10/05 08:54:24;;;;;;;;;;;;;;;20.43;39.38;101029.31;5098606;28;19916;-75
2022/10/05 08:56:52;;;;;;;;;;;;;;;20.81;38.32;101027.13;5096877;28;20152;-74
2022/10/05 08:59:17;;;;;;;;;;;;;;;20.91;38.72;101032.13;5098364;28;19916;-74
2022/10/05 09:01:55;;;;;;;;;;;;;;;21.16;37.15;101024.41;5097355;28;20151;-74
2022/10/05 09:04:28;;;;;;;;;;;;;;;21.21;36.78;101020.06;5098802;28;20129;-74
2022/10/05 09:07:06;;;;;;;;;;;;;;;21.28;36.99;101018.28;5097874;28;19912;-74
2022/10/05 09:09:43;;;;;;;;;;;;;;;20.94;37.80;101013.72;5097853;28;19979;-74
2022/10/05 09:12:27;;;;;;;;;;;;;;;21.20;36.04;101021.09;5096699;28;19924;-74
2022/10/05 09:14:52;;;;;;;;;;;;;;;21.02;37.72;101010.03;5099960;28;19962;-74
2022/10/05 09:17:17;;;;;;;;;;;;;;;21.12;35.97;101013.19;5096441;28;19912;-74
2022/10/05 09:19:58;;;;;;;;;;;;;;;20.79;37.50;101015.69;5097728;28;19959;-74
2022/10/05 09:22:42;;;;;;;;;;;;;;;20.84;37.00;101018.66;5101178;28;19955;-74
2022/10/05 09:25:07;;;;;;;;;;;;;;;20.66;37.29;101015.59;5099213;28;19920;-74
2022/10/05 09:27:35;;;;;;;;;;;;;;;21.01;36.48;101017.28;5113304;28;19919;-74
2022/10/05 09:30:00;;;;;;;;;;;;;;;20.89;36.44;101016.19;5098693;28;20209;-74
2022/10/05 09:32:29;;;;;;;;;;;;;;;20.52;36.71;101011.97;5101875;28;19920;-74
2022/10/05 09:35:08;;;;;;;;;;;;;;;20.74;36.77;101010.06;5101748;28;19923;-74
2022/10/05 09:37:53;;;;;;;;;;;;;;;21.08;35.40;101006.53;5101549;28;19927;-74
2022/10/05 09:40:29;;;;;;;;;;;;;;;20.79;35.80;101010.28;5103497;28;19932;-74
2022/10/05 09:43:05;;;;;;;;;;;;;;;20.78;35.67;101016.72;5101718;28;20130;-74
2022/10/05 09:45:49;;;;;;;;;;;;;;;20.54;35.96;101007.25;5101101;28;19951;-74
2022/10/05 09:48:33;;;;;;;;;;;;;;;20.63;35.65;101013.31;5104678;28;19912;-74
2022/10/05 09:50:58;;;;;;;;;;;;;;;20.56;34.97;101015.13;5100174;28;19920;-74
2022/10/05 09:53:42;;;;;;;;;;;;;;;20.64;34.88;101015.78;5102499;28;19927;-74
2022/10/05 09:56:14;;;;;;;;;;;;;;;20.62;34.82;101007.09;5100091;28;19954;-74
2022/10/05 09:58:46;;;;;;;;;;;;;;;20.67;34.19;101015.41;5101820;28;19986;-74
2022/10/05 10:01:30;;;;;;;;;;;;;;;20.78;33.76;101016.72;5099005;28;20118;-74
2022/10/05 10:04:11;;;;;;;;;;;;;;;20.75;33.55;101013.59;5101396;28;19986;-74
2022/10/05 10:06:36;;;;;;;;;;;;;;;20.77;32.70;101011.53;5100784;28;20110;-74
2022/10/05 10:09:20;;;;;;;;;;;;;;;20.64;33.14;101014.97;5101907;28;19939;-74
2022/10/05 10:11:52;;;;;;;;;;;;;;;20.51;33.11;101007.63;5096322;28;19924;-74
2022/10/05 10:14:38;;;;;;;;;;;;;;;20.86;32.58;101005.81;5100745;28;19923;-74
2022/10/05 10:17:09;;;;;;;;;;;;;;;20.72;32.57;101012.94;5099761;28;19952;-74
2022/10/05 10:19:43;;;;;;;;;;;;;;;20.48;33.09;101004.50;5100790;28;19916;-74
2022/10/05 10:22:15;;;;;;;;;;;;;;;20.26;33.17;100999.13;5100548;28;20105;-74
2022/10/05 10:24:50;;;;;;;;;;;;;;;20.25;33.27;101007.41;5101697;28;19916;-74
2022/10/05 10:27:18;;;;;;;;;;;;;;;20.14;34.47;101005.25;5101360;28;19920;-74
2022/10/05 10:30:03;;;;;;;;;;;;;;;20.27;34.01;100998.09;5116287;28;19927;-74
2022/10/05 10:32:37;;;;;;;;;;;;;;;20.47;33.03;100994.78;5101086;28;19927;-74
2022/10/05 10:35:11;;;;;;;;;;;;;;;20.56;32.90;100996.28;5100330;28;20149;-74
2022/10/05 10:37:51;;;;;;;;;;;;;;;20.57;32.27;100998.78;5100362;28;19919;-74
2022/10/05 10:40:26;;;;;;;;;;;;;;;20.42;32.67;100992.66;5099382;28;19916;-74
2022/10/05 10:42:58;;;;;;;;;;;;;;;20.61;32.17;101001.91;5098902;28;19943;-74
2022/10/05 10:45:41;;;;;;;;;;;;;;;20.25;32.75;100994.78;5098888;28;19920;-74
2022/10/05 10:48:36;;;;;;;;;;;;;;;20.43;33.79;100988.94;5098924;28;19912;-74
2022/10/05 10:51:04;;;;;;;;;;;;;;;20.66;32.42;100988.69;5059275;28;19987;-74
2022/10/05 10:54:02;;;;;;;;;;;;;;;20.70;33.67;100988.09;5100493;28;19912;-74
2022/10/05 10:56:42;;;;;;;;;;;;;;;20.84;32.73;100986.34;5100435;28;19949;-74
2022/10/05 10:59:23;;;;;;;;;;;;;;;21.11;32.18;100989.16;5100347;28;19912;-74
2022/10/05 11:02:06;;;;;;;;;;;;;;;21.23;32.16;100991.09;5100406;28;19931;-74
2022/10/05 11:04:44;;;;;;;;;;;;;;;21.28;31.76;100982.41;5101072;28;20129;-74
2022/10/05 11:07:09;;;;;;;;;;;;;;;21.08;32.48;100982.31;5093215;28;19918;-74
2022/10/05 11:09:34;;;;;;;;;;;;;;;21.20;32.27;100980.69;5099557;28;19916;-74
2022/10/05 11:12:11;;;;;;;;;;;;;;;21.28;32.22;100977.84;5099593;28;19911;-74
2022/10/05 11:14:46;;;;;;;;;;;;;;;21.28;32.30;100972.47;5099137;28;19953;-74
2022/10/05 11:17:17;;;;;;;;;;;;;;;21.51;31.41;100972.13;5099881;28;20026;-74
2022/10/05 11:19:42;;;;;;;;;;;;;;;21.44;30.80;100968.59;5099651;28;20253;-74
2022/10/05 11:22:26;;;;;;;;;;;;;;;21.40;31.52;100964.63;5100897;28;20141;-74
2022/10/05 11:24:54;;;;;;;;;;;;;;;21.44;31.78;100957.81;5099392;28;20182;-74
2022/10/05 11:27:32;;;;;;;;;;;;;;;21.29;31.98;100960.66;5099774;28;19931;-74
2022/10/05 11:30:18;;;;;;;;;;;;;;;21.07;32.37;100960.97;5100214;28;19947;-74
2022/10/05 11:32:46;;;;;;;;;;;;;;;21.38;31.92;100960.47;5090344;28;19915;-74
2022/10/05 11:35:27;;;;;;;;;;;;;;;21.00;31.60;100958.25;5099323;28;21230;-74
2022/10/05 11:38:15;;;;;;;;;;;;;;;20.98;32.25;100953.06;5099301;28;19941;-74
2022/10/05 11:41:01;;;;;;;;;;;;;;;20.99;32.07;100952.03;5089453;28;19923;-74
2022/10/05 11:43:38;;;;;;;;;;;;;;;20.84;32.05;100951.34;5087734;28;20000;-74
2022/10/05 11:46:07;;;;;;;;;;;;;;;20.57;32.17;100944.13;5096075;28;19961;-74
2022/10/05 11:48:41;;;;;;;;;;;;;;;20.62;32.27;100947.06;5099021;28;19912;-74
2022/10/05 11:51:12;;;;;;;;;;;;;;;20.60;32.84;100941.88;5099002;28;19924;-74
2022/10/05 11:53:40;;;;;;;;;;;;;;;20.58;32.18;100933.16;5098713;28;19923;-74
2022/10/05 11:56:24;;;;;;;;;;;;;;;20.80;31.40;100933.06;5092790;28;20109;-74
2022/10/05 11:59:12;;;;;;;;;;;;;;;20.88;31.91;100935.63;5096762;28;19912;-74
2022/10/05 12:01:48;;;;;;;;;;;;;;;20.82;31.74;100928.34;5078884;28;19939;-74
2022/10/05 12:04:13;;;;;;;;;;;;;;;20.98;30.06;100933.38;5099002;28;19924;-74
2022/10/05 12:06:57;;;;;;;;;;;;;;;21.05;29.88;100928.84;5098814;28;20085;-74
2022/10/05 12:09:29;;;;;;;;;;;;;;;20.90;30.49;100933.56;5094668;28;19916;-74
2022/10/05 12:11:57;;;;;;;;;;;;;;;20.97;30.52;100923.66;5098686;28;19926;-74
2022/10/05 12:14:25;;;;;;;;;;;;;;;20.92;30.16;100918.88;5098468;28;19922;-75
2022/10/05 12:17:01;;;;;;;;;;;;;;;20.97;30.65;100918.25;5098045;28;19912;-74
2022/10/05 12:19:35;;;;;;;;;;;;;;;20.65;31.49;100914.34;5099248;28;19920;-74
2022/10/05 12:22:08;;;;;;;;;;;;;;;20.54;30.13;100913.06;5098969;28;19924;-74
2022/10/05 12:24:34;;;;;;;;;;;;;;;20.92;30.03;100923.41;5098986;28;20006;-74
2022/10/05 12:27:17;;;;;;;;;;;;;;;20.83;29.90;100909.31;5089566;28;19991;-75
2022/10/05 12:29:49;;;;;;;;;;;;;;;20.72;29.96;100902.59;5091387;28;20253;-74
2022/10/05 12:32:18;;;;;;;;;;;;;;;20.49;30.32;100895.84;5092805;28;19923;-74
2022/10/05 12:34:43;;;;;;;;;;;;;;;20.65;30.22;100899.03;5093046;28;19924;-75
2022/10/05 12:37:36;;;;;;;;;;;;;;;20.70;30.32;100899.28;5090012;28;19947;-74
2022/10/05 12:40:05;;;;;;;;;;;;;;;20.87;29.53;100889.03;5093622;28;19966;-75
2022/10/05 12:42:36;;;;;;;;;;;;;;;21.01;29.69;100892.59;5089454;28;19952;-74
2022/10/05 12:45:03;;;;;;;;;;;;;;;20.90;30.63;100890.47;5092063;28;19921;-74
2022/10/05 12:47:28;;;;;;;;;;;;;;;20.85;30.56;100899.16;5091078;28;19974;-74
2022/10/05 12:50:16;;;;;;;;;;;;;;;20.63;30.39;100897.59;5093097;28;19924;-74
2022/10/05 12:53:00;;;;;;;;;;;;;;;20.98;29.90;100903.75;5090131;28;19917;-75
2022/10/05 12:55:44;;;;;;;;;;;;;;;21.20;30.69;100899.06;5090481;28;20094;-74
2022/10/05 12:58:12;;;;;;;;;;;;;;;21.16;30.40;100893.25;5089233;28;19916;-75
2022/10/05 13:00:42;;;;;;;;;;;;;;;20.98;30.97;100888.44;5090780;28;20103;-75
2022/10/05 13:03:31;;;;;;;;;;;;;;;21.07;30.51;100896.34;5092456;28;20445;-75
2022/10/05 13:06:23;;;;;;;;;;;;;;;21.23;30.46;100891.44;5083299;28;20527;-75
2022/10/05 13:09:09;;;;;;;;;;;;;;;20.94;30.38;100897.13;5089495;28;19951;-75
2022/10/05 13:11:44;;;;;;;;;;;;;;;20.96;29.70;100889.66;5090004;28;19920;-75